Capt. Crosby — WCP6520 — position and weather

sailwx.info

Track history (hours):
 
Tides and Currents Weather Stations Pressure Air Temp Water Temp Dewpoint Dewpoint Depression Visibility Wind Speed Wind Dir Waves Ship Positions

Capt. Crosby

Owner: CROSBY & SON TOWING LLC, GOLDEN MEADOW, LA. More information available from US FCC via Universal Licensing System and Coast Guard Vessel Documentation Center.

Last reported at 2018-Jan-21 14:59 UTC. Time now 2018-Jan-24 06:06 UTC.
Position N 29°35' W 090°36'.

Length 16 m; draft 2.9 m.

Type: Tug. MMSI: 366988950.

Date/timePositionNaut miles runAvg speedWind from/ knotsBaromVisibWave heightAir tempDewpointWater temp
2018-Jan-21 14:59N 29°35' W 090°36'  
2018-Jan-12 14:58N 29°35' W 090°36'0 0.0
2018-Jan-12 14:10N 29°35' W 090°36'0 0.0
2018-Jan-12 13:58N 29°35' W 090°36'0 0.0
2018-Jan-12 13:28N 29°35' W 090°36'0 0.0
2018-Jan-12 12:58N 29°35' W 090°36'0 0.0
2018-Jan-12 12:28N 29°35' W 090°36'0 0.0
2018-Jan-12 11:52N 29°35' W 090°36'0 0.0
2018-Jan-12 11:28N 29°35' W 090°36'0 0.0
2018-Jan-12 10:58N 29°35' W 090°36'0 0.0
2018-Jan-12 10:10N 29°35' W 090°36'0 0.0
2018-Jan-12 09:52N 29°35' W 090°36'0 0.0
2018-Jan-12 09:28N 29°35' W 090°36'0 0.0
2018-Jan-12 08:52N 29°35' W 090°36'0 0.0
2018-Jan-12 08:28N 29°35' W 090°36'0 0.0
2018-Jan-12 07:58N 29°35' W 090°36'0 0.0
2018-Jan-12 07:28N 29°35' W 090°36'0 0.0
2018-Jan-12 06:58N 29°35' W 090°36'0 0.0
2018-Jan-12 06:28N 29°35' W 090°36'0 0.0
2018-Jan-12 05:58N 29°35' W 090°36'0 0.0
2018-Jan-12 05:28N 29°35' W 090°36'0 0.0
2018-Jan-12 04:52N 29°35' W 090°36'0 0.0
2018-Jan-12 04:28N 29°35' W 090°36'0 0.0
2018-Jan-12 03:52N 29°35' W 090°36'0 0.0
2018-Jan-12 03:10N 29°35' W 090°36'0 0.0
2018-Jan-12 02:58N 29°35' W 090°36'0 0.0
2018-Jan-12 02:28N 29°35' W 090°36'0 0.0
2018-Jan-12 01:58N 29°35' W 090°36'0 0.0
2018-Jan-11 23:16N 29°35' W 090°36'0 0.0
2018-Jan-11 22:58N 29°35' W 090°36'0 0.0
2018-Jan-11 22:28N 29°35' W 090°36'0 0.0
2018-Jan-11 21:59N 29°35' W 090°36'2 4.3
2018-Jan-11 21:30N 29°35' W 090°38'2 3.7
2018-Jan-11 20:58N 29°36' W 090°40'0 0.0
2018-Jan-11 20:28N 29°36' W 090°40'0 0.0
2018-Jan-11 19:58N 29°36' W 090°40'1 2.2
2018-Jan-11 19:30N 29°36' W 090°39'3 5.9
2018-Jan-11 19:01N 29°37' W 090°42'3 5.5
2018-Jan-11 18:29N 29°34' W 090°43'1 2.5
2018-Jan-11 17:58N 29°33' W 090°42'0 0.0
2018-Jan-11 17:28N 29°33' W 090°42'0 0.0
2018-Jan-11 16:58N 29°33' W 090°42'0 0.0
2018-Jan-11 16:28N 29°33' W 090°42'0 0.0
2018-Jan-11 15:58N 29°33' W 090°42'0 0.0
2018-Jan-11 15:28N 29°33' W 090°42'  
Track history (hours):
 
Tides and Currents Weather Stations Pressure Air Temp Water Temp Dewpoint Dewpoint Depression Visibility Wind Speed Wind Dir Waves Ship Positions

Capt. Crosby

Owner: CROSBY & SON TOWING LLC, GOLDEN MEADOW, LA. More information available from US FCC via Universal Licensing System and Coast Guard Vessel Documentation Center.

Last reported at 2018-Jan-21 14:59 UTC. Time now 2018-Jan-24 06:06 UTC.
Position N 29°35' W 090°36'.

Length 16 m; draft 2.9 m.

Type: Tug. MMSI: 366988950.

Date/timePositionNaut miles runAvg speedWind from/ knotsBaromVisibWave heightAir tempDewpointWater temp
2018-Jan-21 14:59N 29°35' W 090°36'  
2018-Jan-12 14:58N 29°35' W 090°36'0 0.0
2018-Jan-12 14:10N 29°35' W 090°36'0 0.0
2018-Jan-12 13:58N 29°35' W 090°36'0 0.0
2018-Jan-12 13:28N 29°35' W 090°36'0 0.0
2018-Jan-12 12:58N 29°35' W 090°36'0 0.0
2018-Jan-12 12:28N 29°35' W 090°36'0 0.0
2018-Jan-12 11:52N 29°35' W 090°36'0 0.0
2018-Jan-12 11:28N 29°35' W 090°36'0 0.0
2018-Jan-12 10:58N 29°35' W 090°36'0 0.0
2018-Jan-12 10:10N 29°35' W 090°36'0 0.0
2018-Jan-12 09:52N 29°35' W 090°36'0 0.0
2018-Jan-12 09:28N 29°35' W 090°36'0 0.0
2018-Jan-12 08:52N 29°35' W 090°36'0 0.0
2018-Jan-12 08:28N 29°35' W 090°36'0 0.0
2018-Jan-12 07:58N 29°35' W 090°36'0 0.0
2018-Jan-12 07:28N 29°35' W 090°36'0 0.0
2018-Jan-12 06:58N 29°35' W 090°36'0 0.0
2018-Jan-12 06:28N 29°35' W 090°36'0 0.0
2018-Jan-12 05:58N 29°35' W 090°36'0 0.0
2018-Jan-12 05:28N 29°35' W 090°36'0 0.0
2018-Jan-12 04:52N 29°35' W 090°36'0 0.0
2018-Jan-12 04:28N 29°35' W 090°36'0 0.0
2018-Jan-12 03:52N 29°35' W 090°36'0 0.0
2018-Jan-12 03:10N 29°35' W 090°36'0 0.0
2018-Jan-12 02:58N 29°35' W 090°36'0 0.0
2018-Jan-12 02:28N 29°35' W 090°36'0 0.0
2018-Jan-12 01:58N 29°35' W 090°36'0 0.0
2018-Jan-11 23:16N 29°35' W 090°36'0 0.0
2018-Jan-11 22:58N 29°35' W 090°36'0 0.0
2018-Jan-11 22:28N 29°35' W 090°36'0 0.0
2018-Jan-11 21:59N 29°35' W 090°36'2 4.3
2018-Jan-11 21:30N 29°35' W 090°38'2 3.7
2018-Jan-11 20:58N 29°36' W 090°40'0 0.0
2018-Jan-11 20:28N 29°36' W 090°40'0 0.0
2018-Jan-11 19:58N 29°36' W 090°40'1 2.2
2018-Jan-11 19:30N 29°36' W 090°39'3 5.9
2018-Jan-11 19:01N 29°37' W 090°42'3 5.5
2018-Jan-11 18:29N 29°34' W 090°43'1 2.5
2018-Jan-11 17:58N 29°33' W 090°42'0 0.0
2018-Jan-11 17:28N 29°33' W 090°42'0 0.0
2018-Jan-11 16:58N 29°33' W 090°42'0 0.0
2018-Jan-11 16:28N 29°33' W 090°42'0 0.0
2018-Jan-11 15:58N 29°33' W 090°42'0 0.0
2018-Jan-11 15:28N 29°33' W 090°42'  

Dump ship's entire track history